Princesa Isabel, Brazil
Current Conditions -  °F | °C
As of 5:00 AM on Wednesday 22 Oct 2014 (Local Time) from SBJU Reporting Station
Broken Clouds Broken Clouds  
Wind Chill: 81°   Ceiling: 2000
Heat Index: 85°   Visibility: 6mi
Dew Point: 72°   Wind: 7mph
Humidity: 74%   Direction: 70°ENE
Pressure: 30.03"   Gusts: NA
Location:  7.74°S, 37.99°W
Report Text: SBJU 220800Z 07006KT 99999 BKN020 27/22 Q1017
Loading
Personal Weather Stations






























Interactive Weather Map
Tropical Storm Tracking
New forecast layout! Learn more

10-Day Weather Forecast

Advertisements
Track Severe Weather on mobile